createdAt,value
2017-03-15T00:00:30.757Z,76.618
2017-03-15T00:03:24.023Z,76.450
2017-03-15T00:06:19.043Z,76.553
2017-03-15T00:09:14.021Z,76.564
2017-03-15T00:12:09.071Z,76.750
2017-03-15T00:15:04.083Z,76.695
2017-03-15T00:17:58.981Z,76.785
2017-03-15T00:20:54.104Z,77.041
2017-03-15T00:23:49.092Z,77.786
2017-03-15T00:26:44.155Z,77.137
2017-03-15T00:29:39.072Z,77.794
2017-03-15T00:32:34.067Z,77.254
2017-03-15T00:35:29.022Z,77.273
2017-03-15T00:38:24.289Z,77.594
2017-03-15T00:41:19.196Z,77.635
2017-03-15T00:44:14.279Z,77.748
2017-03-15T00:47:09.344Z,77.870
2017-03-15T00:50:04.412Z,78.150
2017-03-15T00:52:59.370Z,78.017
2017-03-15T00:55:54.377Z,77.736
2017-03-15T00:58:49.358Z,78.333
2017-03-15T01:01:44.392Z,77.970
2017-03-15T01:04:39.398Z,78.434
2017-03-15T01:07:34.262Z,78.423
2017-03-15T01:10:29.152Z,78.858
2017-03-15T01:13:24.050Z,79.137
2017-03-15T01:16:18.814Z,78.632
2017-03-15T01:19:13.474Z,78.794
2017-03-15T01:22:09.510Z,79.202
2017-03-15T01:25:02.673Z,79.076
2017-03-15T01:27:57.436Z,79.454
2017-03-15T01:30:52.309Z,79.488
2017-03-15T01:33:47.228Z,79.904
2017-03-15T01:36:42.068Z,79.452
2017-03-15T01:39:36.700Z,79.888
2017-03-15T01:42:31.419Z,79.620
2017-03-15T01:45:25.245Z,79.960
2017-03-15T01:48:19.647Z,79.958
2017-03-15T01:51:13.877Z,79.955
2017-03-15T01:54:07.316Z,80.682
2017-03-15T01:57:02.173Z,80.703
2017-03-15T01:59:57.147Z,80.850
2017-03-15T02:02:54.290Z,81.177
2017-03-15T02:05:47.614Z,81.041
2017-03-15T02:08:43.003Z,81.110
2017-03-15T02:11:37.826Z,81.311
2017-03-15T02:14:32.846Z,81.679
2017-03-15T02:17:27.775Z,81.647
2017-03-15T02:20:23.210Z,81.893
2017-03-15T02:23:18.213Z,81.750
2017-03-15T02:26:14.979Z,81.661
2017-03-15T02:29:08.107Z,82.074
2017-03-15T02:32:03.066Z,81.909
2017-03-15T02:34:57.950Z,81.952
2017-03-15T02:37:52.898Z,81.907
2017-03-15T02:40:47.836Z,82.085
2017-03-15T02:43:42.741Z,82.443
2017-03-15T02:46:37.615Z,82.433
2017-03-15T02:49:32.417Z,82.481
2017-03-15T02:52:27.093Z,82.570
2017-03-15T02:55:21.818Z,82.389
2017-03-15T02:58:17.610Z,82.313
2017-03-15T03:01:09.700Z,81.934
2017-03-15T03:04:04.675Z,81.458
2017-03-15T03:06:59.511Z,81.382
2017-03-15T03:09:54.413Z,81.120
2017-03-15T03:12:49.239Z,80.323
2017-03-15T03:15:46.013Z,79.827
2017-03-15T03:18:39.263Z,79.589
2017-03-15T03:21:34.086Z,79.608
2017-03-15T03:24:28.949Z,79.570
2017-03-15T03:27:23.800Z,79.793
2017-03-15T03:30:18.549Z,79.689
2017-03-15T03:33:13.396Z,79.744
2017-03-15T03:36:08.229Z,79.728
2017-03-15T03:39:03.179Z,79.631
2017-03-15T03:41:57.971Z,79.664
2017-03-15T03:44:52.788Z,80.109
2017-03-15T03:47:47.604Z,80.094
2017-03-15T03:50:42.359Z,80.469
2017-03-15T03:53:37.317Z,80.600
2017-03-15T03:56:32.045Z,80.303
2017-03-15T03:59:26.816Z,80.863
2017-03-15T04:02:21.650Z,80.864
2017-03-15T04:05:16.445Z,81.403
2017-03-15T04:08:11.204Z,81.397
2017-03-15T04:11:05.954Z,81.791
2017-03-15T04:14:02.512Z,81.781
2017-03-15T04:16:55.510Z,81.934
2017-03-15T04:19:50.390Z,81.918
2017-03-15T04:22:46.804Z,81.849
2017-03-15T04:25:39.936Z,81.610
2017-03-15T04:28:34.762Z,81.474
2017-03-15T04:31:29.526Z,81.359
2017-03-15T04:34:24.171Z,81.156
2017-03-15T04:37:20.708Z,81.563
2017-03-15T04:40:13.849Z,81.375
2017-03-15T04:43:08.652Z,81.653
2017-03-15T04:46:03.477Z,81.429
2017-03-15T04:48:58.303Z,81.320
2017-03-15T04:51:52.986Z,81.102
2017-03-15T04:54:49.524Z,80.977
2017-03-15T04:57:42.621Z,81.180
2017-03-15T05:00:37.401Z,81.124
2017-03-15T05:03:33.920Z,81.361
2017-03-15T05:06:26.896Z,81.571
2017-03-15T05:09:21.645Z,81.547
2017-03-15T05:12:16.509Z,81.601
2017-03-15T05:15:11.228Z,81.883
2017-03-15T05:18:06.014Z,82.034
2017-03-15T05:21:00.814Z,82.496
2017-03-15T05:23:55.611Z,82.719
2017-03-15T05:26:50.391Z,82.598
2017-03-15T05:29:46.953Z,82.843
2017-03-15T05:32:40.033Z,82.712
2017-03-15T05:35:34.786Z,82.984
2017-03-15T05:38:29.546Z,82.982
2017-03-15T05:41:24.414Z,82.775
2017-03-15T05:44:19.108Z,82.967
2017-03-15T05:47:14.382Z,82.923
2017-03-15T05:50:09.063Z,82.868
2017-03-15T05:53:03.818Z,82.718
2017-03-15T05:55:58.664Z,82.522
2017-03-15T05:58:55.042Z,82.424
2017-03-15T06:01:48.157Z,82.090
2017-03-15T06:04:42.826Z,81.869
2017-03-15T06:07:39.301Z,81.827
2017-03-15T06:10:32.448Z,81.393
2017-03-15T06:13:28.970Z,80.794
2017-03-15T06:16:22.196Z,80.301
2017-03-15T06:19:18.677Z,79.942
2017-03-15T06:22:13.510Z,79.932
2017-03-15T06:25:06.656Z,79.686
2017-03-15T06:28:01.431Z,79.627
2017-03-15T06:30:56.327Z,78.958
2017-03-15T06:33:51.463Z,78.885
2017-03-15T06:36:46.379Z,78.984
2017-03-15T06:39:41.317Z,78.285
2017-03-15T06:42:36.105Z,78.345
2017-03-15T06:45:30.985Z,78.534
2017-03-15T06:48:25.686Z,78.797
2017-03-15T06:51:20.502Z,78.345
2017-03-15T06:54:15.496Z,77.006
2017-03-15T06:57:10.653Z,72.723
2017-03-15T07:00:05.909Z,69.969
2017-03-15T07:03:01.133Z,68.721
2017-03-15T07:05:56.169Z,69.021
2017-03-15T07:08:51.164Z,70.090
2017-03-15T07:11:46.045Z,69.441
2017-03-15T07:14:41.075Z,69.558
2017-03-15T07:17:36.033Z,68.473
2017-03-15T07:20:32.699Z,67.919
2017-03-15T07:23:26.011Z,68.059
2017-03-15T07:29:17.628Z,67.637
2017-03-15T07:32:12.452Z,68.692
2017-03-15T07:35:05.663Z,67.168
2017-03-15T07:38:00.680Z,66.512
2017-03-15T07:40:55.905Z,63.185
2017-03-15T07:43:51.207Z,60.416
2017-03-15T07:46:46.377Z,60.783
2017-03-15T07:49:41.830Z,56.869
2017-03-15T07:52:37.633Z,52.943
2017-03-15T07:55:34.307Z,45.697
2017-03-15T07:58:31.712Z,47.849
2017-03-15T08:01:25.712Z,47.000
2017-03-15T08:04:21.616Z,46.532
2017-03-15T08:07:17.778Z,34.734
2017-03-15T08:10:15.782Z,36.346
2017-03-15T08:13:10.367Z,26.538
2017-03-15T08:16:06.103Z,32.544
2017-03-15T08:19:01.596Z,34.634
2017-03-15T08:21:57.124Z,30.998
2017-03-15T08:24:52.974Z,33.025
2017-03-15T08:27:49.064Z,24.539
2017-03-15T08:30:44.926Z,31.456
2017-03-15T08:33:40.059Z,31.108
2017-03-15T08:36:35.100Z,32.490
2017-03-15T08:39:30.800Z,36.609
2017-03-15T08:42:26.300Z,28.887
2017-03-15T08:45:22.324Z,26.081
2017-03-15T08:48:18.578Z,22.182
2017-03-15T08:51:14.351Z,23.249
2017-03-15T08:54:09.997Z,27.274
2017-03-15T08:57:05.328Z,26.720
2017-03-15T09:00:00.799Z,26.872
2017-03-15T09:02:56.232Z,25.035
2017-03-15T09:05:51.423Z,30.863
2017-03-15T09:08:46.638Z,29.215
2017-03-15T09:11:41.684Z,32.657
2017-03-15T09:14:37.089Z,31.680
2017-03-15T09:17:32.387Z,30.001
2017-03-15T09:20:27.361Z,32.880
2017-03-15T09:23:22.327Z,37.475
2017-03-15T09:26:17.544Z,34.716
2017-03-15T09:29:12.466Z,39.500
2017-03-15T09:32:07.953Z,33.838
2017-03-15T09:35:03.994Z,27.682
2017-03-15T09:38:01.594Z,23.516
2017-03-15T09:40:55.267Z,23.635
2017-03-15T09:43:50.323Z,28.203
2017-03-15T09:46:45.226Z,30.524
2017-03-15T09:49:39.912Z,32.208
2017-03-15T09:52:34.450Z,34.520
2017-03-15T09:55:29.294Z,37.048
2017-03-15T09:58:24.367Z,32.780
2017-03-15T10:01:19.034Z,29.207
2017-03-15T10:04:14.638Z,28.667
2017-03-15T10:07:12.129Z,27.457
2017-03-15T10:10:05.893Z,31.163
2017-03-15T10:13:01.014Z,36.501
2017-03-15T10:15:56.305Z,29.101
2017-03-15T10:18:51.829Z,28.683
2017-03-15T10:21:46.932Z,35.721
2017-03-15T10:24:41.640Z,34.974
2017-03-15T10:27:36.662Z,37.299
2017-03-15T10:30:31.146Z,40.463
2017-03-15T10:33:25.685Z,41.115
2017-03-15T10:36:20.367Z,42.296
2017-03-15T10:39:15.288Z,43.250
2017-03-15T10:42:10.206Z,44.459
2017-03-15T10:45:05.087Z,44.022
2017-03-15T10:47:59.996Z,46.362
2017-03-15T10:50:54.963Z,46.019
2017-03-15T10:53:49.695Z,46.702
2017-03-15T10:56:44.432Z,47.926
2017-03-15T10:59:39.020Z,49.386
2017-03-15T11:02:33.677Z,47.692
2017-03-15T11:05:29.893Z,47.318
2017-03-15T11:08:22.658Z,47.958
2017-03-15T11:11:17.195Z,49.315
2017-03-15T11:14:11.717Z,49.358
2017-03-15T11:17:06.259Z,49.331
2017-03-15T11:20:00.801Z,49.827
2017-03-15T11:22:55.232Z,48.247
2017-03-15T11:25:49.661Z,49.087
2017-03-15T11:28:44.128Z,50.293
2017-03-15T11:31:38.599Z,49.584
2017-03-15T11:34:33.011Z,48.390
2017-03-15T11:37:27.849Z,48.767
2017-03-15T11:40:22.520Z,48.988
2017-03-15T11:43:17.754Z,48.909
2017-03-15T11:46:12.368Z,50.593
2017-03-15T11:49:07.058Z,50.238
2017-03-15T11:52:01.610Z,50.920
2017-03-15T11:54:56.281Z,50.348
2017-03-15T11:57:52.664Z,50.496
2017-03-15T12:00:45.748Z,48.587
2017-03-15T12:03:40.373Z,47.096
2017-03-15T12:06:34.961Z,47.451
2017-03-15T12:09:29.497Z,46.423
2017-03-15T12:12:24.040Z,46.832
2017-03-15T12:15:18.619Z,47.898
2017-03-15T12:18:15.039Z,48.228
2017-03-15T12:21:07.767Z,48.625
2017-03-15T12:24:02.289Z,50.291
2017-03-15T12:26:56.958Z,50.435
2017-03-15T12:29:51.681Z,50.529
2017-03-15T12:32:46.340Z,49.315
2017-03-15T12:35:40.998Z,49.451
2017-03-15T12:38:35.634Z,49.998
2017-03-15T12:41:30.391Z,50.385
2017-03-15T12:44:26.919Z,48.561
2017-03-15T12:47:19.888Z,48.409
2017-03-15T12:50:14.606Z,48.681
2017-03-15T12:53:09.250Z,48.002
2017-03-15T12:56:03.886Z,47.600
2017-03-15T12:58:58.530Z,47.769
2017-03-15T13:01:54.792Z,48.814
2017-03-15T13:04:47.811Z,49.269
2017-03-15T13:07:42.396Z,46.794
2017-03-15T13:10:37.069Z,48.522
2017-03-15T13:13:31.634Z,47.384
2017-03-15T13:16:26.155Z,47.208
2017-03-15T13:19:20.773Z,47.146
2017-03-15T13:22:15.384Z,46.298
2017-03-15T13:25:10.037Z,47.992
2017-03-15T13:28:06.506Z,47.651
2017-03-15T13:30:59.347Z,47.010
2017-03-15T13:33:53.976Z,46.700
2017-03-15T13:36:48.432Z,46.628
2017-03-15T13:39:43.151Z,48.174
2017-03-15T13:42:37.814Z,47.334
2017-03-15T13:45:32.434Z,45.833
2017-03-15T13:48:27.173Z,45.824
2017-03-15T13:51:21.935Z,45.804
2017-03-15T13:54:16.639Z,45.858
2017-03-15T14:00:05.981Z,47.034
2017-03-15T14:03:00.683Z,47.632
2017-03-15T14:05:55.268Z,47.439
2017-03-15T14:08:49.929Z,46.803
2017-03-15T14:11:44.635Z,45.782
2017-03-15T14:14:40.941Z,45.766
2017-03-15T14:17:34.013Z,45.677
2017-03-15T14:20:28.746Z,46.198
2017-03-15T14:23:23.239Z,46.196
2017-03-15T14:26:17.893Z,44.443
2017-03-15T14:29:12.540Z,46.422
2017-03-15T14:32:07.194Z,46.991
2017-03-15T14:35:01.959Z,45.243
2017-03-15T14:37:56.320Z,45.403
2017-03-15T14:40:51.032Z,46.171
2017-03-15T14:43:45.733Z,44.167
2017-03-15T14:46:40.260Z,45.375
2017-03-15T14:49:34.990Z,45.134
2017-03-15T14:52:29.631Z,46.073
2017-03-15T14:55:24.236Z,44.524
2017-03-15T14:58:18.783Z,43.475
2017-03-15T15:01:13.452Z,45.132
2017-03-15T15:04:08.125Z,45.224
2017-03-15T15:07:02.749Z,44.990
2017-03-15T15:09:57.585Z,45.642
2017-03-15T15:12:52.099Z,43.983
2017-03-15T15:15:46.678Z,45.916
2017-03-15T15:18:41.305Z,45.333
2017-03-15T15:21:37.725Z,45.878
2017-03-15T15:24:30.531Z,44.492
2017-03-15T15:27:25.151Z,46.688
2017-03-15T15:30:19.566Z,44.808
2017-03-15T15:33:15.946Z,44.096
2017-03-15T15:36:08.949Z,44.342
2017-03-15T15:39:03.522Z,45.634
2017-03-15T15:41:58.146Z,46.218
2017-03-15T15:44:52.729Z,45.408
2017-03-15T15:47:47.229Z,45.887
2017-03-15T15:50:41.737Z,46.064
2017-03-15T15:53:36.311Z,45.489
2017-03-15T15:56:30.809Z,45.786
2017-03-15T15:59:25.366Z,46.089
2017-03-15T16:02:19.986Z,47.197
2017-03-15T16:05:14.488Z,46.945
2017-03-15T16:08:09.088Z,46.704
2017-03-15T16:11:05.347Z,46.547
2017-03-15T16:14:00.002Z,46.268
2017-03-15T16:16:52.727Z,47.273
2017-03-15T16:19:47.254Z,46.771
2017-03-15T16:22:43.664Z,47.753
2017-03-15T16:25:36.365Z,47.241
2017-03-15T16:28:31.003Z,48.061
2017-03-15T16:31:27.366Z,48.187
2017-03-15T16:34:20.122Z,48.203
2017-03-15T16:37:16.487Z,49.460
2017-03-15T16:40:09.113Z,50.417
2017-03-15T16:43:03.671Z,49.263
2017-03-15T16:45:58.088Z,50.235
2017-03-15T16:48:52.533Z,50.834
2017-03-15T16:51:47.019Z,51.031
2017-03-15T16:54:41.493Z,51.220
2017-03-15T16:57:36.245Z,51.481
2017-03-15T17:00:30.827Z,52.260
2017-03-15T17:03:25.322Z,52.220
2017-03-15T17:06:19.800Z,52.455
2017-03-15T17:09:14.355Z,53.381
2017-03-15T17:12:10.738Z,53.464
2017-03-15T17:15:03.485Z,53.465
2017-03-15T17:17:57.915Z,53.969
2017-03-15T17:20:52.371Z,55.198
2017-03-15T17:23:46.823Z,55.062
2017-03-15T17:26:41.217Z,55.119
2017-03-15T17:29:35.775Z,55.675
2017-03-15T17:32:30.182Z,56.011
2017-03-15T17:35:24.517Z,56.314
2017-03-15T17:38:19.009Z,56.954
2017-03-15T17:41:13.517Z,56.943
2017-03-15T17:44:08.047Z,57.044
2017-03-15T17:47:02.587Z,56.771
2017-03-15T17:49:57.053Z,56.870
2017-03-15T17:52:51.520Z,57.525
2017-03-15T17:55:45.952Z,58.261
2017-03-15T17:58:40.608Z,58.671
2017-03-15T18:01:35.096Z,58.557
2017-03-15T18:04:31.357Z,58.761
2017-03-15T18:07:24.075Z,59.148
2017-03-15T18:10:18.570Z,59.556
2017-03-15T18:13:13.045Z,57.993
2017-03-15T18:16:07.406Z,59.365
2017-03-15T18:19:01.821Z,59.086
2017-03-15T18:21:56.257Z,59.986
2017-03-15T18:24:50.622Z,60.820
2017-03-15T18:27:45.135Z,60.916
2017-03-15T18:30:39.692Z,61.146
2017-03-15T18:33:34.143Z,60.533
2017-03-15T18:36:28.584Z,61.654
2017-03-15T18:39:24.789Z,60.919
2017-03-15T18:42:17.652Z,61.006
2017-03-15T18:45:12.139Z,61.585
2017-03-15T18:48:06.496Z,62.250
2017-03-15T18:51:00.905Z,61.249
2017-03-15T18:53:55.237Z,61.802
2017-03-15T18:56:49.541Z,62.872
2017-03-15T18:59:43.819Z,62.851
2017-03-15T19:02:38.129Z,62.307
2017-03-15T19:05:32.369Z,62.952
2017-03-15T19:08:26.755Z,62.981
2017-03-15T19:11:21.264Z,62.126
2017-03-15T19:14:17.873Z,62.728
2017-03-15T19:17:12.183Z,62.418
2017-03-15T19:20:04.745Z,62.969
2017-03-15T19:22:59.067Z,62.656
2017-03-15T19:25:55.116Z,62.833
2017-03-15T19:28:47.740Z,63.790
2017-03-15T19:31:42.144Z,63.786
2017-03-15T19:34:36.393Z,63.421
2017-03-15T19:37:30.680Z,64.823
2017-03-15T19:40:24.916Z,64.739
2017-03-15T19:43:19.257Z,65.514
2017-03-15T19:46:15.292Z,65.078
2017-03-15T19:49:07.821Z,64.821
2017-03-15T19:52:01.977Z,64.500
2017-03-15T19:54:56.697Z,65.173
2017-03-15T19:57:52.663Z,66.190
2017-03-15T20:00:46.889Z,65.539
2017-03-15T20:03:39.955Z,65.929
2017-03-15T20:06:34.708Z,66.072
2017-03-15T20:09:28.958Z,65.979
2017-03-15T20:12:23.240Z,66.759
2017-03-15T20:15:17.510Z,66.550
2017-03-15T20:18:12.213Z,66.486
2017-03-15T20:21:06.434Z,67.259
2017-03-15T20:24:00.551Z,67.273
2017-03-15T20:26:55.973Z,63.868
2017-03-15T20:29:48.102Z,67.972
2017-03-15T20:32:41.672Z,67.831
2017-03-15T20:35:35.303Z,66.664
2017-03-15T20:38:28.873Z,68.458
2017-03-15T20:41:22.305Z,67.846
2017-03-15T20:44:15.651Z,68.291
2017-03-15T20:47:08.538Z,67.675
2017-03-15T20:50:01.833Z,67.452
2017-03-15T20:52:55.356Z,67.835
2017-03-15T20:55:48.365Z,69.187
2017-03-15T20:58:41.606Z,68.803
2017-03-15T21:01:34.807Z,69.825
2017-03-15T21:04:28.027Z,68.553
2017-03-15T21:07:21.261Z,69.215
2017-03-15T21:10:14.622Z,69.010
2017-03-15T21:13:07.756Z,69.246
2017-03-15T21:16:01.096Z,69.604
2017-03-15T21:18:54.364Z,69.595
2017-03-15T21:21:47.784Z,70.767
2017-03-15T21:24:42.785Z,70.598
2017-03-15T21:27:34.421Z,70.191
2017-03-15T21:30:27.660Z,70.666
2017-03-15T21:33:22.568Z,68.451
2017-03-15T21:36:14.064Z,71.058
2017-03-15T21:39:09.032Z,71.264
2017-03-15T21:42:00.614Z,70.651
2017-03-15T21:44:53.967Z,70.804
2017-03-15T21:47:48.868Z,71.914
2017-03-15T21:50:41.103Z,72.213
2017-03-15T21:53:33.950Z,71.007
2017-03-15T21:56:27.211Z,72.702
2017-03-15T21:59:22.281Z,72.563
2017-03-15T22:02:13.778Z,73.052
2017-03-15T22:05:08.781Z,72.311
2017-03-15T22:08:00.521Z,72.594
2017-03-15T22:10:53.853Z,72.854
2017-03-15T22:13:47.238Z,70.848
2017-03-15T22:16:40.495Z,73.311
2017-03-15T22:19:35.510Z,71.863
2017-03-15T22:22:27.063Z,73.702
2017-03-15T22:25:22.124Z,73.342
2017-03-15T22:28:13.776Z,73.496
2017-03-15T22:31:07.213Z,72.610
2017-03-15T22:34:00.543Z,72.728
2017-03-15T22:36:54.799Z,73.442
2017-03-15T22:39:47.226Z,72.177
2017-03-15T22:42:42.561Z,72.489
2017-03-15T22:45:34.126Z,72.334
2017-03-15T22:48:29.264Z,72.909
2017-03-15T22:51:20.663Z,68.525
2017-03-15T22:54:15.830Z,73.476
2017-03-15T22:57:07.760Z,75.132
2017-03-15T23:00:01.067Z,71.249
2017-03-15T23:02:54.337Z,73.881
2017-03-15T23:05:47.741Z,70.935
2017-03-15T23:08:42.837Z,74.819
2017-03-15T23:11:34.466Z,74.093
2017-03-15T23:14:27.867Z,74.642
2017-03-15T23:17:21.416Z,73.563
2017-03-15T23:20:14.824Z,75.166
2017-03-15T23:23:09.889Z,75.314
2017-03-15T23:26:01.515Z,74.689
2017-03-15T23:28:54.877Z,75.503
2017-03-15T23:31:49.946Z,75.047
2017-03-15T23:34:41.592Z,75.837
2017-03-15T23:37:34.900Z,76.361
2017-03-15T23:40:28.248Z,72.514
2017-03-15T23:43:21.512Z,74.423
2017-03-15T23:46:14.797Z,76.195
2017-03-15T23:49:09.671Z,77.669
2017-03-15T23:52:01.207Z,73.731
2017-03-15T23:54:54.434Z,76.404
2017-03-15T23:57:47.705Z,76.821
